Terminal Aerodrome Forecast
Issued by NWS

Current Version | Previous Version | Text Only | Print | Product List | Glossary Off
Versions: 1 2 3 4 5 6 7 8 9 10 11 12 13 14 15 16

000
FTUS41 KPBZ 171400 AAA
TAFMGW
TAF AMD
KMGW 171451Z 1715/1812 21010G16KT P6SM BKN020
     FM171600 21012G20KT P6SM SCT040
     FM172300 23008G15KT P6SM OVC040
     FM180800 24008KT P6SM BKN020=

USA.gov is the U.S. government's official web portal to all federal, state and local government web resources and services.